Time;durP1;ratioP1;P1;durP2;ratioP2;P2;SDS_P1;SDS_P2;PMS_P1;PMS_P2;Temp;Humidity;BMP_temperature;BMP_pressure;BME280_temperature;BME280_humidity;BME280_pressure;Samples;Min_cycle;Max_cycle;Signal;HPM_P1;HPM_P2
2022/04/30 00:01:01;;;;;;;15.03;10.23;;;14.90;98.70;;;;;;4971668;28;20821;-69
2022/04/30 00:03:28;;;;;;;19.97;9.97;;;14.90;98.80;;;;;;4970893;28;20446;-71
2022/04/30 00:05:57;;;;;;;12.90;10.23;;;14.80;98.90;;;;;;4971008;28;20552;-68
2022/04/30 00:08:23;;;;;;;11.90;8.67;;;14.80;99.30;;;;;;4969208;28;20482;-68
2022/04/30 00:10:50;;;;;;;18.13;9.57;;;14.80;99.20;;;;;;4971492;28;20974;-69
2022/04/30 00:13:16;;;;;;;18.23;9.80;;;14.70;99.50;;;;;;4969416;28;20520;-71
2022/04/30 00:15:42;;;;;;;12.70;9.00;;;14.70;99.60;;;;;;4971392;28;21002;-69
2022/04/30 00:18:09;;;;;;;12.50;8.90;;;14.60;99.50;;;;;;4971096;28;20484;-70
2022/04/30 00:20:36;;;;;;;14.40;8.90;;;14.60;99.40;;;;;;4983680;28;20240;-69
2022/04/30 00:23:05;;;;;;;12.70;8.47;;;14.60;99.60;;;;;;4971466;28;20489;-69
2022/04/30 00:25:31;;;;;;;14.50;8.77;;;14.60;99.70;;;;;;4968801;28;20468;-69
2022/04/30 00:27:57;;;;;;;16.63;8.97;;;14.60;99.90;;;;;;4971589;28;20470;-69
2022/04/30 00:30:22;;;;;;;10.80;7.87;;;14.70;99.60;;;;;;4988118;28;20605;-69
2022/04/30 00:32:48;;;;;;;12.27;8.17;;;14.60;99.90;;;;;;4974951;28;20219;-70
2022/04/30 00:35:15;;;;;;;13.50;8.90;;;14.60;99.60;;;;;;4974479;28;20222;-70
2022/04/30 00:37:41;;;;;;;12.17;9.23;;;14.50;99.90;;;;;;4973311;28;20721;-69
2022/04/30 00:40:07;;;;;;;14.43;9.30;;;14.50;99.90;;;;;;4974883;28;20492;-69
2022/04/30 00:42:33;;;;;;;13.43;8.37;;;14.40;99.90;;;;;;4972881;28;20582;-69
2022/04/30 00:44:59;;;;;;;13.77;9.63;;;14.30;99.90;;;;;;4971239;28;20995;-69
2022/04/30 00:47:26;;;;;;;11.60;8.83;;;14.30;99.90;;;;;;4974802;28;20249;-70
2022/04/30 00:49:52;;;;;;;12.90;8.50;;;14.20;99.90;;;;;;5002291;28;20365;-69
2022/04/30 00:52:18;;;;;;;13.00;8.50;;;14.10;99.90;;;;;;4991004;28;20536;-70
2022/04/30 00:54:52;;;;;;;17.47;9.83;;;14.10;99.90;;;;;;4992413;28;20225;-68
2022/04/30 00:57:23;;;;;;;15.43;8.17;;;14.10;99.90;;;;;;4975110;28;20831;-69
2022/04/30 00:59:59;;;;;;;12.53;8.47;;;14.10;99.90;;;;;;4976171;28;20992;-69
2022/04/30 01:02:28;;;;;;;14.83;8.63;;;14.10;99.90;;;;;;4998811;28;20456;-69
2022/04/30 01:05:14;;;;;;;15.77;8.90;;;14.10;99.90;;;;;;4989984;28;20541;-70
2022/04/30 01:07:40;;;;;;;12.03;8.20;;;14.00;99.90;;;;;;4992979;28;20468;-69
2022/04/30 01:10:08;;;;;;;13.50;9.40;;;14.00;99.90;;;;;;4993088;28;20468;-70
2022/04/30 01:12:34;;;;;;;13.17;9.30;;;14.00;99.90;;;;;;4991929;28;20465;-69
2022/04/30 01:15:05;;;;;;;11.00;7.57;;;13.90;99.90;;;;;;4993502;28;20465;-69
2022/04/30 01:17:31;;;;;;;16.00;8.53;;;13.80;99.90;;;;;;5002867;28;20540;-70
2022/04/30 01:19:58;;;;;;;11.30;8.40;;;13.80;99.90;;;;;;4993598;28;20453;-68
2022/04/30 01:22:29;;;;;;;13.50;8.07;;;13.90;99.90;;;;;;4993192;28;20464;-68
2022/04/30 01:24:59;;;;;;;13.70;8.07;;;13.90;99.90;;;;;;4991587;28;20496;-66
2022/04/30 01:27:26;;;;;;;10.70;8.30;;;13.90;99.90;;;;;;5007332;28;20839;-67
2022/04/30 01:29:55;;;;;;;13.77;8.83;;;13.90;99.90;;;;;;4993088;28;20504;-69
2022/04/30 01:38:01;;;;;;;13.00;9.13;;;13.80;99.90;;;;;;4979408;28;20453;-69
2022/04/30 01:40:28;;;;;;;15.63;9.23;;;13.80;99.90;;;;;;5001007;28;20886;-71
2022/04/30 01:42:58;;;;;;;12.73;8.77;;;13.80;99.90;;;;;;4992600;28;20226;-69
2022/04/30 01:45:25;;;;;;;11.00;8.00;;;13.90;99.90;;;;;;4992163;28;20452;-68
2022/04/30 01:47:52;;;;;;;11.30;8.10;;;14.00;99.90;;;;;;5007959;28;20473;-68
2022/04/30 01:50:17;;;;;;;11.40;7.93;;;14.10;99.90;;;;;;4992592;28;20532;-69
2022/04/30 01:52:43;;;;;;;14.00;9.13;;;14.10;99.90;;;;;;4993230;28;20855;-70
2022/04/30 01:55:10;;;;;;;9.83;7.47;;;14.10;99.90;;;;;;4992864;28;20226;-68
2022/04/30 01:57:38;;;;;;;15.20;9.07;;;14.10;99.90;;;;;;4992186;28;20225;-68
2022/04/30 02:00:05;;;;;;;9.73;8.00;;;14.10;99.90;;;;;;5007900;28;20450;-68
2022/04/30 02:02:40;;;;;;;11.77;8.50;;;14.00;99.90;;;;;;4985899;28;20973;-68
2022/04/30 02:05:08;;;;;;;16.43;8.77;;;14.10;99.90;;;;;;4992085;28;20517;-68
2022/04/30 02:07:40;;;;;;;16.83;8.17;;;14.00;99.90;;;;;;4991491;28;20852;-69
2022/04/30 02:10:11;;;;;;;12.90;8.53;;;14.00;99.90;;;;;;4992643;28;20537;-69
2022/04/30 02:12:38;;;;;;;10.50;7.93;;;14.00;99.90;;;;;;5007142;28;20464;-68
2022/04/30 02:15:05;;;;;;;14.87;7.37;;;14.00;99.90;;;;;;5003603;28;20464;-68
2022/04/30 02:17:36;;;;;;;11.90;7.47;;;14.00;99.90;;;;;;4990530;28;20457;-68
2022/04/30 02:22:47;;;;;;;10.37;7.43;;;14.00;99.90;;;;;;4992551;28;20980;-68
2022/04/30 02:25:14;;;;;;;16.10;8.97;;;14.00;99.90;;;;;;4974109;28;20949;-68
2022/04/30 02:27:44;;;;;;;12.60;8.67;;;14.00;99.90;;;;;;5006838;28;20457;-67
2022/04/30 02:30:17;;;;;;;13.63;8.17;;;14.00;99.90;;;;;;4992185;28;20491;-71
2022/04/30 02:33:04;;;;;;;11.90;8.40;;;13.90;99.90;;;;;;4981155;28;20510;-68
2022/04/30 02:35:35;;;;;;;11.27;8.10;;;13.90;99.90;;;;;;4990400;28;20573;-68
2022/04/30 02:38:05;;;;;;;14.20;7.60;;;13.90;99.90;;;;;;4970991;28;20462;-71
2022/04/30 02:40:33;;;;;;;9.97;7.73;;;13.80;99.90;;;;;;4984612;28;20464;-67
2022/04/30 02:43:06;;;;;;;12.40;8.13;;;13.80;99.90;;;;;;4991856;28;21022;-68
2022/04/30 02:45:33;;;;;;;13.17;8.03;;;13.70;99.90;;;;;;4990075;28;20456;-68
2022/04/30 02:47:59;;;;;;;12.40;8.30;;;13.60;99.90;;;;;;4990560;28;20469;-70
2022/04/30 02:50:25;;;;;;;14.03;7.57;;;13.50;99.90;;;;;;4988615;28;20985;-70
2022/04/30 02:52:54;;;;;;;14.20;8.03;;;13.50;99.90;;;;;;4974543;28;20453;-69
2022/04/30 02:55:21;;;;;;;12.00;7.97;;;13.60;99.90;;;;;;5006117;28;20819;-69
2022/04/30 03:00:47;;;;;;;10.50;7.60;;;13.60;99.90;;;;;;4991272;28;20802;-68
2022/04/30 03:03:42;;;;;;;10.53;7.23;;;13.50;99.90;;;;;;4997885;28;20484;-68
2022/04/30 03:06:09;;;;;;;12.77;8.67;;;13.50;99.90;;;;;;4974202;28;20989;-69
2022/04/30 03:08:35;;;;;;;9.83;7.13;;;13.50;99.90;;;;;;4989080;28;20252;-69
2022/04/30 03:11:03;;;;;;;12.27;7.77;;;13.50;99.90;;;;;;4991481;28;20953;-67
2022/04/30 03:13:30;;;;;;;13.63;7.70;;;13.50;99.90;;;;;;4999618;28;20457;-68
2022/04/30 03:15:57;;;;;;;10.97;7.50;;;13.50;99.90;;;;;;4991228;28;20480;-68
2022/04/30 03:23:39;;;;;;;14.67;8.63;;;13.50;99.90;;;;;;4990472;28;20535;-67
2022/04/30 03:26:06;;;;;;;15.90;6.67;;;13.50;99.90;;;;;;4989582;28;20984;-69
2022/04/30 03:28:32;;;;;;;9.43;6.10;;;13.50;99.90;;;;;;4988874;28;20465;-68
2022/04/30 03:30:59;;;;;;;12.23;7.17;;;13.50;99.90;;;;;;4991225;28;20524;-66
2022/04/30 03:33:26;;;;;;;13.80;8.37;;;13.50;99.90;;;;;;5002315;28;20462;-69
2022/04/30 03:35:52;;;;;;;12.03;7.30;;;13.50;99.90;;;;;;4970739;28;20454;-69
2022/04/30 03:38:17;;;;;;;10.40;7.70;;;13.50;99.90;;;;;;4989136;28;20843;-69
2022/04/30 03:40:43;;;;;;;10.47;6.97;;;13.40;99.90;;;;;;4990075;28;20468;-68
2022/04/30 03:43:09;;;;;;;14.20;7.97;;;13.40;99.90;;;;;;4973800;28;20276;-70
2022/04/30 03:45:35;;;;;;;11.53;8.10;;;13.40;99.90;;;;;;5005371;28;20736;-69
2022/04/30 03:48:01;;;;;;;10.60;6.80;;;13.40;99.90;;;;;;4989400;28;20773;-68
2022/04/30 03:50:26;;;;;;;11.80;7.60;;;13.50;99.90;;;;;;4990364;28;20457;-68
2022/04/30 03:52:52;;;;;;;10.30;7.00;;;13.50;99.90;;;;;;5006228;28;20230;-68
2022/04/30 03:55:18;;;;;;;11.07;7.80;;;13.50;99.90;;;;;;4972614;28;20228;-68
2022/04/30 03:57:44;;;;;;;11.80;8.37;;;13.50;99.90;;;;;;5005715;28;20620;-69
2022/04/30 04:00:10;;;;;;;9.80;8.03;;;13.50;99.90;;;;;;4990785;28;20453;-70
2022/04/30 04:02:40;;;;;;;13.47;8.37;;;13.50;99.90;;;;;;4969663;28;20233;-68
2022/04/30 04:05:13;;;;;;;19.07;10.20;;;13.50;99.90;;;;;;4973445;28;20465;-67
2022/04/30 04:07:40;;;;;;;13.57;8.60;;;13.50;99.90;;;;;;4974669;28;20472;-68
2022/04/30 04:10:06;;;;;;;12.93;8.70;;;13.30;99.90;;;;;;4974629;28;20477;-67
2022/04/30 04:12:32;;;;;;;12.40;8.40;;;13.30;99.90;;;;;;4985803;28;20476;-68
2022/04/30 04:17:42;;;;;;;12.20;7.40;;;13.30;99.90;;;;;;5001845;28;20260;-70
2022/04/30 04:20:15;;;;;;;9.70;6.53;;;13.20;99.90;;;;;;5009887;28;20468;-68
2022/04/30 04:22:41;;;;;;;12.13;7.40;;;13.20;99.90;;;;;;5001861;28;20276;-68
2022/04/30 04:27:54;;;;;;;10.50;7.13;;;13.20;99.90;;;;;;4988806;28;20229;-68
2022/04/30 04:30:24;;;;;;;13.50;8.57;;;13.20;99.90;;;;;;4991593;28;20457;-68
2022/04/30 04:32:50;;;;;;;9.57;7.40;;;13.20;99.90;;;;;;4994222;28;20464;-68
2022/04/30 04:35:16;;;;;;;12.03;7.43;;;13.20;99.90;;;;;;4992775;28;20449;-68
2022/04/30 04:37:45;;;;;;;12.00;8.33;;;13.10;99.90;;;;;;5001426;28;20300;-68
2022/04/30 04:40:12;;;;;;;10.33;7.87;;;13.10;99.90;;;;;;4976557;28;20535;-68
2022/04/30 04:42:39;;;;;;;14.73;7.93;;;13.10;99.90;;;;;;4993834;28;20472;-68
2022/04/30 04:45:06;;;;;;;13.80;8.17;;;13.20;99.90;;;;;;4994207;28;20468;-68
2022/04/30 04:47:34;;;;;;;12.27;8.20;;;13.10;99.90;;;;;;5008073;28;20468;-69
2022/04/30 04:50:01;;;;;;;10.10;7.10;;;13.00;99.90;;;;;;5009372;28;20814;-70
2022/04/30 04:52:27;;;;;;;10.70;7.43;;;13.00;99.90;;;;;;5003294;28;20453;-68
2022/04/30 04:54:52;;;;;;;11.07;7.37;;;13.00;99.90;;;;;;4992524;28;21107;-68
2022/04/30 04:57:18;;;;;;;14.20;7.83;;;13.00;99.90;;;;;;4992118;28;20221;-70
2022/04/30 04:59:44;;;;;;;12.87;7.40;;;13.10;99.90;;;;;;4992242;28;20231;-70
2022/04/30 05:02:10;;;;;;;10.90;7.37;;;13.10;99.90;;;;;;4992431;28;20577;-68
2022/04/30 05:04:37;;;;;;;11.23;7.60;;;13.10;99.90;;;;;;4972518;28;20469;-68
2022/04/30 05:07:03;;;;;;;13.10;7.57;;;13.10;99.90;;;;;;4972943;28;20464;-70
2022/04/30 05:09:31;;;;;;;11.40;7.60;;;13.10;99.90;;;;;;4969865;28;20478;-69
2022/04/30 05:12:00;;;;;;;12.43;7.03;;;13.10;99.90;;;;;;4971109;28;20466;-69
2022/04/30 05:14:32;;;;;;;10.77;7.30;;;13.00;99.90;;;;;;4971769;28;20485;-67
2022/04/30 05:17:02;;;;;;;10.67;7.00;;;13.00;99.90;;;;;;4967719;28;20810;-69
2022/04/30 05:19:28;;;;;;;10.33;7.20;;;12.90;99.90;;;;;;4968716;28;20474;-69
2022/04/30 05:21:54;;;;;;;14.20;8.30;;;12.90;99.90;;;;;;4962401;28;20467;-68
2022/04/30 05:24:20;;;;;;;11.93;7.90;;;12.90;99.90;;;;;;4968377;28;20270;-68
2022/04/30 05:26:47;;;;;;;14.93;7.03;;;12.90;99.90;;;;;;4971954;28;20277;-68
2022/04/30 05:29:13;;;;;;;10.43;7.50;;;12.90;99.90;;;;;;4972490;28;20230;-68
2022/04/30 05:31:39;;;;;;;12.53;7.60;;;12.90;99.90;;;;;;4963690;28;20528;-67
2022/04/30 05:34:05;;;;;;;10.43;7.90;;;12.80;99.90;;;;;;4972324;28;20847;-68
2022/04/30 05:36:30;;;;;;;14.10;8.07;;;12.80;99.90;;;;;;4971863;28;20633;-70
2022/04/30 05:38:56;;;;;;;14.37;8.60;;;12.80;99.90;;;;;;4973271;28;20592;-65
2022/04/30 05:41:22;;;;;;;17.10;9.37;;;12.80;99.90;;;;;;4971846;28;20218;-69
2022/04/30 05:43:48;;;;;;;17.27;9.60;;;12.80;99.90;;;;;;4973180;28;20583;-71
2022/04/30 05:46:13;;;;;;;15.37;8.67;;;12.80;99.90;;;;;;4981720;28;20222;-67
2022/04/30 05:48:39;;;;;;;13.77;9.70;;;12.80;99.90;;;;;;4992596;28;20225;-68
2022/04/30 05:51:05;;;;;;;17.93;11.40;;;12.80;99.90;;;;;;5006196;28;20705;-68
2022/04/30 05:53:31;;;;;;;11.80;9.80;;;12.70;99.90;;;;;;4971594;28;20280;-70
2022/04/30 05:55:57;;;;;;;16.53;11.50;;;12.70;99.90;;;;;;4972050;28;20218;-69
2022/04/30 05:58:23;;;;;;;17.30;11.77;;;12.70;99.90;;;;;;4971206;28;20317;-68
2022/04/30 06:00:48;;;;;;;14.30;10.40;;;12.70;99.90;;;;;;4971861;28;20214;-69
2022/04/30 06:03:14;;;;;;;16.83;11.37;;;12.70;99.90;;;;;;4962022;28;20219;-68
2022/04/30 06:05:40;;;;;;;17.33;11.33;;;12.60;99.90;;;;;;4953850;28;20219;-68
2022/04/30 06:08:06;;;;;;;16.97;10.50;;;12.60;99.90;;;;;;4968611;28;20262;-69
2022/04/30 06:10:32;;;;;;;20.57;12.53;;;12.60;99.90;;;;;;4982356;28;20225;-69
2022/04/30 06:12:59;;;;;;;20.57;12.13;;;12.60;99.90;;;;;;4972877;28;20485;-68
2022/04/30 06:15:25;;;;;;;16.90;11.30;;;12.60;99.90;;;;;;4970935;28;20453;-67
2022/04/30 06:17:51;;;;;;;16.20;10.70;;;12.70;99.90;;;;;;4971633;28;20461;-68
2022/04/30 06:20:17;;;;;;;12.40;8.83;;;12.60;99.90;;;;;;4970938;28;20466;-68
2022/04/30 06:22:42;;;;;;;14.77;10.00;;;12.60;99.90;;;;;;4972479;28;20513;-68
2022/04/30 06:25:10;;;;;;;14.00;9.20;;;12.60;99.90;;;;;;4970971;28;20207;-68
2022/04/30 06:27:35;;;;;;;13.27;9.20;;;12.60;99.90;;;;;;4966476;28;20246;-70
2022/04/30 06:30:01;;;;;;;13.50;8.63;;;12.70;99.90;;;;;;4971452;28;20454;-68
2022/04/30 06:32:27;;;;;;;14.10;9.23;;;12.70;99.90;;;;;;4955482;28;20599;-69
2022/04/30 06:34:53;;;;;;;10.80;7.77;;;12.70;99.90;;;;;;4979437;28;20459;-68
2022/04/30 06:37:18;;;;;;;15.63;9.83;;;12.60;99.90;;;;;;4990004;28;20301;-70
2022/04/30 06:39:45;;;;;;;12.50;7.73;;;12.60;99.90;;;;;;4999421;28;20226;-69
2022/04/30 06:42:11;;;;;;;12.23;7.40;;;12.50;99.90;;;;;;4958813;28;20218;-68
2022/04/30 06:44:36;;;;;;;10.90;7.80;;;12.50;99.90;;;;;;4967894;28;20489;-68
2022/04/30 06:47:03;;;;;;;11.77;8.00;;;12.50;99.90;;;;;;4957263;28;20269;-67
2022/04/30 06:49:28;;;;;;;8.97;7.47;;;12.50;99.90;;;;;;4966246;28;20473;-67
2022/04/30 06:51:54;;;;;;;10.03;7.40;;;12.50;99.90;;;;;;4970908;28;20464;-66
2022/04/30 06:57:08;;;;;;;10.00;7.63;;;12.40;99.90;;;;;;4971644;28;20226;-67
2022/04/30 06:59:37;;;;;;;12.17;8.03;;;12.40;99.90;;;;;;4970361;28;20497;-67
2022/04/30 07:02:09;;;;;;;10.20;7.70;;;12.40;99.90;;;;;;4954520;28;20529;-68
2022/04/30 07:04:35;;;;;;;12.57;7.87;;;12.40;99.90;;;;;;4958008;28;20463;-67
2022/04/30 07:07:01;;;;;;;11.00;8.43;;;12.40;99.90;;;;;;4963989;28;20486;-68
2022/04/30 07:09:33;;;;;;;9.60;6.97;;;12.40;99.90;;;;;;4970895;28;20474;-67
2022/04/30 07:12:06;;;;;;;10.97;7.57;;;12.40;99.90;;;;;;4972029;28;20226;-69
2022/04/30 07:14:35;;;;;;;13.33;8.00;;;12.40;99.90;;;;;;4963274;28;20454;-68
2022/04/30 07:17:06;;;;;;;9.80;7.07;;;12.40;99.90;;;;;;4948982;28;21039;-68
2022/04/30 07:19:32;;;;;;;10.87;8.13;;;12.50;99.90;;;;;;4980271;28;20520;-69
2022/04/30 07:21:58;;;;;;;14.63;7.10;;;12.40;99.90;;;;;;4980101;28;20516;-70
2022/04/30 07:24:24;;;;;;;11.03;8.30;;;12.40;99.90;;;;;;4980438;28;20457;-69
2022/04/30 07:26:50;;;;;;;9.97;7.33;;;12.40;99.90;;;;;;4988731;28;20969;-69
2022/04/30 07:29:17;;;;;;;12.90;7.47;;;12.40;99.90;;;;;;4994776;28;20234;-70
2022/04/30 07:31:42;;;;;;;14.03;8.17;;;12.40;99.90;;;;;;4985984;28;20549;-69
2022/04/30 07:34:09;;;;;;;10.97;7.67;;;12.40;99.90;;;;;;4993265;28;20481;-68
2022/04/30 07:36:39;;;;;;;10.67;7.43;;;12.30;99.90;;;;;;4975410;28;20214;-68
2022/04/30 07:39:06;;;;;;;7.87;6.67;;;12.40;99.90;;;;;;4981213;28;20857;-68
2022/04/30 07:41:31;;;;;;;9.40;6.70;;;12.30;99.90;;;;;;4979540;28;20454;-68
2022/04/30 07:43:57;;;;;;;8.83;7.53;;;12.40;99.90;;;;;;4984598;28;20505;-68
2022/04/30 07:46:23;;;;;;;10.87;7.63;;;12.30;99.90;;;;;;4985292;28;20593;-69
2022/04/30 07:48:50;;;;;;;11.30;7.17;;;12.30;99.90;;;;;;4993914;28;20707;-71
2022/04/30 07:51:19;;;;;;;12.07;7.07;;;12.30;99.90;;;;;;4977156;28;20226;-70
2022/04/30 07:53:47;;;;;;;10.00;7.47;;;12.30;99.90;;;;;;4989150;28;20461;-71
2022/04/30 07:56:15;;;;;;;9.70;7.10;;;12.30;99.90;;;;;;4994991;28;20460;-71
2022/04/30 07:58:41;;;;;;;9.43;6.77;;;12.30;99.90;;;;;;4983337;28;20457;-71
2022/04/30 08:01:07;;;;;;;10.67;7.70;;;12.40;99.90;;;;;;4986517;28;20480;-72
2022/04/30 08:03:34;;;;;;;9.73;7.00;;;12.40;99.90;;;;;;4970699;28;20324;-72
2022/04/30 08:06:00;;;;;;;12.37;8.10;;;12.40;99.90;;;;;;4987114;28;20488;-72
2022/04/30 08:08:26;;;;;;;11.90;7.80;;;12.40;99.90;;;;;;4993149;28;20481;-71
2022/04/30 08:10:52;;;;;;;10.07;7.40;;;12.40;99.90;;;;;;4988363;28;20464;-71
2022/04/30 08:13:18;;;;;;;12.10;9.33;;;12.40;99.90;;;;;;4974741;28;20454;-75
2022/04/30 08:15:43;;;;;;;13.27;9.50;;;12.40;99.90;;;;;;4980662;28;20597;-70
2022/04/30 08:18:10;;;;;;;12.83;8.93;;;12.30;99.90;;;;;;4980289;28;20464;-68
2022/04/30 08:20:40;;;;;;;14.73;9.40;;;12.40;99.90;;;;;;4988112;28;20218;-68
2022/04/30 08:23:06;;;;;;;13.90;10.17;;;12.40;99.90;;;;;;4982661;28;20492;-70
2022/04/30 08:25:34;;;;;;;18.23;10.67;;;12.40;99.90;;;;;;4984120;28;21021;-69
2022/04/30 08:28:01;;;;;;;17.57;10.57;;;12.40;99.90;;;;;;4984687;28;20477;-69
2022/04/30 08:30:27;;;;;;;15.07;10.83;;;12.40;99.90;;;;;;4981524;28;20844;-68
2022/04/30 08:32:53;;;;;;;14.70;10.70;;;12.30;99.90;;;;;;4981401;28;20479;-69
2022/04/30 08:35:18;;;;;;;15.33;10.20;;;12.30;99.90;;;;;;4987500;28;20226;-69
2022/04/30 08:37:44;;;;;;;18.03;11.07;;;12.30;99.90;;;;;;4983824;28;20225;-69
2022/04/30 08:40:10;;;;;;;16.10;10.00;;;12.30;99.90;;;;;;5004540;28;20218;-68
2022/04/30 08:42:36;;;;;;;13.53;10.10;;;12.30;99.90;;;;;;4979984;28;20216;-68
2022/04/30 08:45:06;;;;;;;18.33;11.60;;;12.30;99.90;;;;;;4989703;28;20457;-66
2022/04/30 08:47:37;;;;;;;24.83;10.47;;;12.20;99.90;;;;;;4972096;28;20226;-68
2022/04/30 08:50:03;;;;;;;12.63;10.33;;;12.20;99.90;;;;;;4981576;28;20480;-68
2022/04/30 08:52:29;;;;;;;17.93;10.90;;;12.30;99.90;;;;;;4979503;28;20465;-69
2022/04/30 08:54:54;;;;;;;17.53;10.57;;;12.30;99.90;;;;;;4996908;28;20465;-69
2022/04/30 08:57:20;;;;;;;14.80;10.20;;;12.30;99.90;;;;;;4980097;28;20245;-68
2022/04/30 08:59:46;;;;;;;13.93;9.67;;;12.20;99.90;;;;;;4987477;28;20218;-68
2022/04/30 09:02:12;;;;;;;18.77;10.27;;;12.20;99.90;;;;;;4991781;28;20221;-68
2022/04/30 09:04:48;;;;;;;16.80;12.07;;;12.20;99.90;;;;;;4962611;28;20463;-69
2022/04/30 09:07:20;;;;;;;15.63;10.90;;;12.20;99.90;;;;;;4960007;28;20695;-69
2022/04/30 09:09:56;;;;;;;16.20;10.50;;;12.20;99.90;;;;;;4967774;28;20473;-67
2022/04/30 09:12:23;;;;;;;16.60;11.30;;;12.20;99.90;;;;;;4987578;28;20484;-71
2022/04/30 09:14:49;;;;;;;16.90;11.30;;;12.30;99.90;;;;;;4973277;28;20454;-68
2022/04/30 09:17:15;;;;;;;15.10;10.47;;;12.30;99.90;;;;;;4973022;28;20458;-69
2022/04/30 09:19:53;;;;;;;13.43;9.47;;;12.20;99.90;;;;;;4973162;28;20528;-70
2022/04/30 09:22:35;;;;;;;16.73;9.77;;;12.10;99.90;;;;;;4972220;28;20461;-68
2022/04/30 09:25:04;;;;;;;13.37;9.90;;;12.20;99.90;;;;;;4970014;28;20462;-69
2022/04/30 09:27:31;;;;;;;18.13;10.97;;;12.20;99.90;;;;;;4986835;28;20824;-68
2022/04/30 09:29:57;;;;;;;15.90;9.67;;;12.20;99.90;;;;;;4987667;28;20473;-70
2022/04/30 09:32:25;;;;;;;15.43;10.07;;;12.30;99.90;;;;;;4972327;28;20473;-69
2022/04/30 09:37:41;;;;;;;15.47;9.77;;;12.30;99.90;;;;;;4980821;28;20446;-68
2022/04/30 09:40:13;;;;;;;11.93;9.40;;;12.20;99.90;;;;;;4981073;28;20466;-70
2022/04/30 09:42:39;;;;;;;17.40;10.03;;;12.20;99.90;;;;;;4981479;28;21017;-68
2022/04/30 09:45:06;;;;;;;14.73;9.87;;;12.30;99.90;;;;;;4967856;28;20469;-70
2022/04/30 09:47:35;;;;;;;13.47;9.40;;;12.20;99.90;;;;;;5000698;28;20481;-68
2022/04/30 09:55:34;;;;;;;10.87;8.03;;;12.10;99.90;;;;;;5006653;28;20511;-69
2022/04/30 09:58:04;;;;;;;12.00;8.37;;;12.10;99.90;;;;;;4991807;28;20457;-72
2022/04/30 10:00:33;;;;;;;13.33;10.10;;;12.10;99.90;;;;;;4991332;28;21051;-72
2022/04/30 10:03:03;;;;;;;10.67;8.10;;;12.20;99.90;;;;;;4987178;28;20458;-71
2022/04/30 10:05:35;;;;;;;11.53;8.73;;;12.10;99.90;;;;;;4993805;28;20468;-71
2022/04/30 10:08:02;;;;;;;14.37;8.67;;;12.10;99.90;;;;;;4988762;28;20476;-70
2022/04/30 10:10:38;;;;;;;14.43;8.80;;;12.10;99.90;;;;;;4983976;28;20461;-70
2022/04/30 10:13:18;;;;;;;15.83;9.37;;;12.10;99.90;;;;;;4990165;28;20452;-71
2022/04/30 10:15:51;;;;;;;12.60;8.40;;;12.10;99.90;;;;;;4989094;28;20460;-71
2022/04/30 10:18:18;;;;;;;11.80;8.80;;;12.00;99.90;;;;;;4974920;28;20623;-71
2022/04/30 10:20:52;;;;;;;12.07;8.67;;;12.10;99.90;;;;;;5006960;28;20544;-72
2022/04/30 10:23:18;;;;;;;11.53;8.10;;;12.10;99.90;;;;;;5006315;28;20461;-71
2022/04/30 10:25:46;;;;;;;10.67;8.10;;;12.10;99.90;;;;;;5003480;28;20523;-72
2022/04/30 10:28:23;;;;;;;12.77;7.90;;;12.10;99.90;;;;;;4986506;28;20226;-72
2022/04/30 10:31:05;;;;;;;11.60;8.20;;;12.10;99.90;;;;;;4975690;28;20469;-72
2022/04/30 10:33:32;;;;;;;11.20;7.73;;;12.20;99.90;;;;;;4950564;28;20862;-74
2022/04/30 10:36:11;;;;;;;11.60;7.50;;;12.10;99.90;;;;;;4950985;28;20466;-71
2022/04/30 10:38:38;;;;;;;11.33;8.27;;;12.10;99.90;;;;;;4993754;28;20565;-71
2022/04/30 10:41:08;;;;;;;13.30;8.80;;;12.20;99.90;;;;;;4951414;28;20479;-70
2022/04/30 10:43:42;;;;;;;12.90;9.27;;;12.20;99.90;;;;;;4966634;28;20458;-76
2022/04/30 10:46:18;;;;;;;12.47;8.30;;;12.20;99.90;;;;;;4967883;28;20496;-70
2022/04/30 10:48:44;;;;;;;12.80;8.10;;;12.20;99.90;;;;;;4977043;28;20559;-71
2022/04/30 10:51:15;;;;;;;10.80;7.90;;;12.20;99.90;;;;;;4966524;28;20545;-71
2022/04/30 10:53:43;;;;;;;13.17;9.30;;;12.20;99.90;;;;;;4985502;28;20465;-70
2022/04/30 10:56:10;;;;;;;16.73;8.67;;;12.30;99.90;;;;;;4983816;28;20925;-69
2022/04/30 10:58:37;;;;;;;10.57;7.67;;;12.30;99.90;;;;;;4988102;28;20457;-74
2022/04/30 11:01:17;;;;;;;13.77;8.73;;;12.40;99.90;;;;;;4988136;28;20485;-69
2022/04/30 11:03:44;;;;;;;13.80;9.00;;;12.40;99.90;;;;;;4986629;28;20809;-69
2022/04/30 11:06:11;;;;;;;13.50;8.97;;;12.40;99.90;;;;;;4984996;28;20930;-71
2022/04/30 11:08:37;;;;;;;12.43;8.50;;;12.40;99.90;;;;;;4981739;28;20455;-70
2022/04/30 11:11:03;;;;;;;16.20;8.67;;;12.40;99.90;;;;;;4969505;28;20459;-69
2022/04/30 11:13:29;;;;;;;10.43;7.37;;;12.30;99.90;;;;;;4975184;28;20469;-69
2022/04/30 11:15:58;;;;;;;12.03;8.33;;;12.30;99.90;;;;;;4990354;28;20499;-70
2022/04/30 11:18:24;;;;;;;9.13;7.57;;;12.30;99.90;;;;;;4989298;28;20476;-70
2022/04/30 11:21:00;;;;;;;9.17;6.83;;;12.30;99.90;;;;;;4961022;28;20789;-74
2022/04/30 11:23:28;;;;;;;12.00;8.10;;;12.30;99.90;;;;;;4968530;28;20240;-70
2022/04/30 11:25:54;;;;;;;11.50;7.77;;;12.30;99.90;;;;;;4996258;28;20917;-71
2022/04/30 11:28:27;;;;;;;12.17;9.00;;;12.30;99.90;;;;;;4969914;28;20565;-69
2022/04/30 11:30:58;;;;;;;16.13;10.57;;;12.40;99.90;;;;;;4983152;28;20242;-70
2022/04/30 11:33:32;;;;;;;12.30;8.40;;;12.40;99.90;;;;;;4966496;28;20454;-70
2022/04/30 11:35:58;;;;;;;16.23;9.20;;;12.40;99.90;;;;;;4965901;28;20541;-70
2022/04/30 11:38:24;;;;;;;11.77;8.37;;;12.30;99.90;;;;;;4959415;28;20542;-69
2022/04/30 11:40:49;;;;;;;10.10;8.30;;;12.40;99.90;;;;;;4957007;28;20250;-70
2022/04/30 11:43:23;;;;;;;11.80;8.43;;;12.40;99.90;;;;;;4971050;28;20276;-70
2022/04/30 11:46:01;;;;;;;12.90;8.93;;;12.40;99.90;;;;;;4979002;28;20593;-70
2022/04/30 11:48:31;;;;;;;14.43;9.20;;;12.40;99.90;;;;;;4997640;28;20496;-70
2022/04/30 11:50:57;;;;;;;12.10;8.60;;;12.40;99.90;;;;;;4972562;28;20454;-70
2022/04/30 11:53:24;;;;;;;12.67;9.43;;;12.40;99.90;;;;;;4987507;28;20540;-71
2022/04/30 11:55:50;;;;;;;14.20;9.00;;;12.40;99.90;;;;;;5005455;28;20273;-69
2022/04/30 11:58:16;;;;;;;13.73;8.67;;;12.40;99.90;;;;;;5004638;28;20457;-69
2022/04/30 12:00:42;;;;;;;13.20;9.03;;;12.40;99.90;;;;;;4983410;28;20469;-69
2022/04/30 12:03:09;;;;;;;13.23;10.10;;;12.40;99.90;;;;;;4993311;28;20257;-69
2022/04/30 12:05:35;;;;;;;16.80;9.63;;;12.40;99.90;;;;;;4991594;28;20591;-70
2022/04/30 12:08:02;;;;;;;13.20;8.93;;;12.40;99.90;;;;;;4962564;28;20483;-72
2022/04/30 12:10:28;;;;;;;13.27;9.03;;;12.40;99.90;;;;;;4989387;28;20981;-70
2022/04/30 12:12:54;;;;;;;13.20;8.83;;;12.40;99.90;;;;;;4990123;28;20500;-70
2022/04/30 12:15:22;;;;;;;12.20;8.33;;;12.40;99.90;;;;;;4983484;28;20469;-69
2022/04/30 12:26:13;;;;;;;11.50;8.13;;;12.50;99.90;;;;;;4984597;28;20552;-68
2022/04/30 12:28:46;;;;;;;17.60;9.40;;;12.50;99.90;;;;;;4978799;28;20462;-70
2022/04/30 12:31:12;;;;;;;11.20;8.63;;;12.50;99.90;;;;;;4986398;28;20468;-70
2022/04/30 12:33:48;;;;;;;15.23;8.80;;;12.50;99.90;;;;;;4991325;28;20558;-71
2022/04/30 12:36:14;;;;;;;15.23;8.43;;;12.50;99.90;;;;;;4989260;28;20547;-70
2022/04/30 12:38:53;;;;;;;14.40;9.70;;;12.50;99.90;;;;;;4981004;28;20461;-71
2022/04/30 12:41:19;;;;;;;11.80;8.60;;;12.50;99.90;;;;;;4970552;28;20473;-71
2022/04/30 12:43:44;;;;;;;11.57;8.83;;;12.50;99.90;;;;;;4962944;28;21060;-70
2022/04/30 12:46:18;;;;;;;13.00;7.97;;;12.50;99.90;;;;;;4974650;28;20229;-69
2022/04/30 12:48:44;;;;;;;13.23;9.03;;;12.50;99.90;;;;;;5004957;28;20326;-69
2022/04/30 12:51:10;;;;;;;16.33;8.80;;;12.50;99.90;;;;;;4972907;28;20545;-70
2022/04/30 12:53:36;;;;;;;12.23;8.50;;;12.60;99.90;;;;;;4971897;28;20226;-69
2022/04/30 12:56:02;;;;;;;84.67;45.17;;;12.50;99.90;;;;;;4969867;28;20450;-69
2022/04/30 12:58:28;;;;;;;47.30;27.67;;;12.50;99.90;;;;;;4986364;28;20705;-69
2022/04/30 13:00:54;;;;;;;17.13;12.50;;;12.50;99.90;;;;;;4989326;28;20313;-70
2022/04/30 13:03:20;;;;;;;11.80;8.87;;;12.50;99.90;;;;;;4983365;28;20301;-70
2022/04/30 13:05:46;;;;;;;12.00;8.67;;;12.50;99.90;;;;;;4990816;28;20539;-71
2022/04/30 13:08:12;;;;;;;10.70;8.03;;;12.50;99.90;;;;;;4984036;28;20230;-71
2022/04/30 13:13:31;;;;;;;11.40;8.43;;;12.50;99.90;;;;;;4994897;28;20281;-69
2022/04/30 13:16:04;;;;;;;13.13;8.80;;;12.60;99.90;;;;;;4988525;28;20457;-70
2022/04/30 13:18:30;;;;;;;11.67;8.43;;;12.60;99.90;;;;;;4988029;28;20464;-71
2022/04/30 13:20:55;;;;;;;15.80;8.53;;;12.60;99.90;;;;;;4986320;28;20450;-69
2022/04/30 13:23:21;;;;;;;11.77;8.37;;;12.70;99.90;;;;;;4987787;28;20690;-69